Terminal Aerodrome Forecast
Issued by NWS Binghamton, NY

Home | Current Version | Previous Version | Text Only | Print | Product List | Glossary On
Versions: 1 2 3 4 5 6 7 8 9 10 11 12 13 14 15 16 17 18 19 20 21 22 23 24 25 26 27 28 29
000
FTUS41 KBGM 231100
TAFBGM
TAF
KBGM 231136Z 2312/2412 14005KT P6SM OVC025
      TEMPO 2312/2314 OVC015
     FM231900 13005KT P6SM BKN035
     FM240000 12004KT P6SM SCT035
     FM240700 VRB03KT 3SM BR SCT015=

USA.gov is the U.S. government's official web portal to all federal, state and local government web resources and services.